createdAt,value
2019-01-08T00:00:36.330Z,5.91
2019-01-08T00:03:04.810Z,6.00
2019-01-08T00:05:33.248Z,5.95
2019-01-08T00:08:01.663Z,5.88
2019-01-08T00:10:30.106Z,5.76
2019-01-08T00:12:58.525Z,5.78
2019-01-08T00:15:26.963Z,5.77
2019-01-08T00:17:55.388Z,5.75
2019-01-08T00:20:23.884Z,5.71
2019-01-08T00:22:52.326Z,5.72
2019-01-08T00:25:20.738Z,5.68
2019-01-08T00:27:49.179Z,5.68
2019-01-08T00:30:17.600Z,5.64
2019-01-08T00:32:46.046Z,5.56
2019-01-08T00:35:14.456Z,5.67
2019-01-08T00:37:42.895Z,5.73
2019-01-08T00:40:11.305Z,5.73
2019-01-08T00:42:39.763Z,5.77
2019-01-08T00:45:08.178Z,5.77
2019-01-08T00:47:36.622Z,5.75
2019-01-08T00:50:06.214Z,5.75
2019-01-08T00:52:34.656Z,5.78
2019-01-08T00:55:03.149Z,5.76
2019-01-08T00:57:31.598Z,5.82
2019-01-08T01:00:00.012Z,5.82
2019-01-08T01:02:28.453Z,5.82
2019-01-08T01:04:56.873Z,5.88
2019-01-08T01:07:25.318Z,5.96
2019-01-08T01:09:53.733Z,5.93
2019-01-08T01:12:22.190Z,5.99
2019-01-08T01:14:50.606Z,5.99
2019-01-08T01:17:19.058Z,6.02
2019-01-08T01:19:47.464Z,5.98
2019-01-08T01:22:15.912Z,5.92
2019-01-08T01:24:44.328Z,5.93
2019-01-08T01:27:12.776Z,5.96
2019-01-08T01:29:41.260Z,6.04
2019-01-08T01:32:09.705Z,6.04
2019-01-08T01:34:38.128Z,6.04
2019-01-08T01:37:06.583Z,6.06
2019-01-08T01:39:35.004Z,6.02
2019-01-08T01:42:03.444Z,6.07
2019-01-08T01:44:31.868Z,6.11
2019-01-08T01:47:00.321Z,6.20
2019-01-08T01:49:28.807Z,6.15
2019-01-08T01:51:57.328Z,6.11
2019-01-08T01:54:25.752Z,6.11
2019-01-08T01:56:54.193Z,6.19
2019-01-08T01:59:22.620Z,6.16
2019-01-08T02:01:51.065Z,6.15
2019-01-08T02:04:19.489Z,6.21
2019-01-08T02:06:47.927Z,6.21
2019-01-08T02:09:16.344Z,6.23
2019-01-08T02:11:44.878Z,6.22
2019-01-08T02:14:13.293Z,6.18
2019-01-08T02:16:41.741Z,6.21
2019-01-08T02:19:10.164Z,6.22
2019-01-08T02:21:38.619Z,6.15
2019-01-08T02:24:07.034Z,6.13
2019-01-08T02:26:35.483Z,6.12
2019-01-08T02:29:03.902Z,6.08
2019-01-08T02:31:32.318Z,6.07
2019-01-08T02:34:00.771Z,6.03
2019-01-08T02:36:29.258Z,6.01
2019-01-08T02:38:57.697Z,5.91
2019-01-08T02:41:26.236Z,5.91
2019-01-08T02:43:54.721Z,5.90
2019-01-08T02:46:23.149Z,5.82
2019-01-08T02:48:51.588Z,5.87
2019-01-08T02:51:20.016Z,5.93
2019-01-08T02:53:48.459Z,5.93
2019-01-08T02:56:16.890Z,5.90
2019-01-08T02:58:45.344Z,5.90
2019-01-08T03:01:13.774Z,5.87
2019-01-08T03:03:42.287Z,5.87
2019-01-08T03:06:10.699Z,5.84
2019-01-08T03:08:39.147Z,5.83
2019-01-08T03:11:07.564Z,5.79
2019-01-08T03:13:36.016Z,5.84
2019-01-08T03:16:04.437Z,5.84
2019-01-08T03:18:32.885Z,5.84
2019-01-08T03:21:01.373Z,5.83
2019-01-08T03:23:29.897Z,5.79
2019-01-08T03:25:58.316Z,5.79
2019-01-08T03:28:26.775Z,5.82
2019-01-08T03:30:55.213Z,5.85
2019-01-08T03:33:23.834Z,5.85
2019-01-08T03:35:52.258Z,5.81
2019-01-08T03:38:20.676Z,5.75
2019-01-08T03:40:49.114Z,5.71
2019-01-08T03:43:17.532Z,5.71
2019-01-08T03:45:45.972Z,5.69
2019-01-08T03:48:14.397Z,5.56
2019-01-08T03:50:42.853Z,5.45
2019-01-08T03:53:11.345Z,5.35
2019-01-08T03:55:39.792Z,5.35
2019-01-08T03:58:08.210Z,5.29
2019-01-08T04:00:36.656Z,5.30
2019-01-08T04:03:05.067Z,5.19
2019-01-08T04:05:33.509Z,5.19
2019-01-08T04:08:01.930Z,5.14
2019-01-08T04:10:30.381Z,5.07
2019-01-08T04:12:58.800Z,5.07
2019-01-08T04:15:27.320Z,5.03
2019-01-08T04:17:55.737Z,5.14
2019-01-08T04:20:24.184Z,5.14
2019-01-08T04:22:52.615Z,5.12
2019-01-08T04:25:21.057Z,5.14
2019-01-08T04:27:49.476Z,5.14
2019-01-08T04:30:17.923Z,5.09
2019-01-08T04:32:46.411Z,5.08
2019-01-08T04:35:14.858Z,5.12
2019-01-08T04:37:43.272Z,5.12
2019-01-08T04:40:11.717Z,5.17
2019-01-08T04:42:40.141Z,5.18
2019-01-08T04:45:08.550Z,5.14
2019-01-08T04:47:36.996Z,5.18
2019-01-08T04:50:07.052Z,5.08
2019-01-08T04:52:35.497Z,5.14
2019-01-08T04:55:04.060Z,5.02
2019-01-08T04:57:32.500Z,5.06
2019-01-08T05:00:00.919Z,5.06
2019-01-08T05:02:29.367Z,5.15
2019-01-08T05:04:57.781Z,5.18
2019-01-08T05:07:26.214Z,5.18
2019-01-08T05:09:54.707Z,5.19
2019-01-08T05:12:23.162Z,5.16
2019-01-08T05:14:51.579Z,5.28
2019-01-08T05:17:20.017Z,5.28
2019-01-08T05:19:48.430Z,5.25
2019-01-08T05:22:16.863Z,5.25
2019-01-08T05:24:45.273Z,5.25
2019-01-08T05:27:13.707Z,5.23
2019-01-08T05:29:42.119Z,5.23
2019-01-08T05:32:10.567Z,5.21
2019-01-08T05:34:38.982Z,5.20
2019-01-08T05:37:07.424Z,5.20
2019-01-08T05:39:35.831Z,5.25
2019-01-08T05:42:04.275Z,5.21
2019-01-08T05:44:32.694Z,5.15
2019-01-08T05:47:01.134Z,5.15
2019-01-08T05:49:29.545Z,5.20
2019-01-08T05:51:58.020Z,5.19
2019-01-08T05:54:26.426Z,5.16
2019-01-08T05:56:54.849Z,5.21
2019-01-08T05:59:23.292Z,5.21
2019-01-08T06:01:51.705Z,5.17
2019-01-08T06:04:20.142Z,5.20
2019-01-08T06:06:48.626Z,5.20
2019-01-08T06:09:17.056Z,5.13
2019-01-08T06:11:45.469Z,5.06
2019-01-08T06:14:13.912Z,5.13
2019-01-08T06:16:42.332Z,5.11
2019-01-08T06:19:10.772Z,5.11
2019-01-08T06:21:39.190Z,5.05
2019-01-08T06:24:07.624Z,5.05
2019-01-08T06:26:36.037Z,5.08
2019-01-08T06:29:04.475Z,5.15
2019-01-08T06:31:32.918Z,5.15
2019-01-08T06:34:01.411Z,5.15
2019-01-08T06:36:29.824Z,5.05
2019-01-08T06:38:58.261Z,5.05
2019-01-08T06:41:26.673Z,5.12
2019-01-08T06:43:55.115Z,5.12
2019-01-08T06:46:23.531Z,5.08
2019-01-08T06:48:51.965Z,5.14
2019-01-08T06:51:20.386Z,5.14
2019-01-08T06:53:48.831Z,5.00
2019-01-08T06:56:17.240Z,5.00
2019-01-08T06:58:45.675Z,5.05
2019-01-08T07:01:14.093Z,5.14
2019-01-08T07:03:42.535Z,5.16
2019-01-08T07:06:10.947Z,5.16
2019-01-08T07:08:39.391Z,5.18
2019-01-08T07:11:07.819Z,5.15
2019-01-08T07:13:36.236Z,5.15
2019-01-08T07:16:04.682Z,5.22
2019-01-08T07:18:33.097Z,5.22
2019-01-08T07:21:01.544Z,5.24
2019-01-08T07:23:29.958Z,5.24
2019-01-08T07:25:58.400Z,5.24
2019-01-08T07:28:26.819Z,5.24
2019-01-08T07:30:55.255Z,5.22
2019-01-08T07:33:23.676Z,5.28
2019-01-08T07:35:52.582Z,5.22
2019-01-08T07:38:20.993Z,5.30
2019-01-08T07:40:49.436Z,5.30
2019-01-08T07:43:17.860Z,5.28
2019-01-08T07:45:46.296Z,5.26
2019-01-08T07:48:14.786Z,5.31
2019-01-08T07:50:43.230Z,5.31
2019-01-08T07:53:11.645Z,5.28
2019-01-08T07:55:40.095Z,5.28
2019-01-08T07:58:08.510Z,5.34
2019-01-08T08:00:36.953Z,5.27
2019-01-08T08:03:05.435Z,5.27
2019-01-08T08:05:33.884Z,5.30
2019-01-08T08:08:02.302Z,5.29
2019-01-08T08:10:30.740Z,5.29
2019-01-08T08:12:59.155Z,5.38
2019-01-08T08:15:27.585Z,5.36
2019-01-08T08:17:56.011Z,5.30
2019-01-08T08:20:24.466Z,5.27
2019-01-08T08:22:52.864Z,5.27
2019-01-08T08:25:21.301Z,5.29
2019-01-08T08:27:49.721Z,5.33
2019-01-08T08:30:18.164Z,5.30
2019-01-08T08:32:46.575Z,5.30
2019-01-08T08:35:15.031Z,5.32
2019-01-08T08:37:43.423Z,5.39
2019-01-08T08:40:11.861Z,5.33
2019-01-08T08:42:40.276Z,5.39
2019-01-08T08:45:08.732Z,5.42
2019-01-08T08:47:37.136Z,5.42
2019-01-08T08:50:06.712Z,5.38
2019-01-08T08:52:35.152Z,5.42
2019-01-08T08:55:03.567Z,5.42
2019-01-08T08:57:32.011Z,5.43
2019-01-08T09:00:00.432Z,5.49
2019-01-08T09:02:28.873Z,5.52
2019-01-08T09:04:57.293Z,5.55
2019-01-08T09:07:25.731Z,5.59
2019-01-08T09:09:54.147Z,5.68
2019-01-08T09:12:22.589Z,5.68
2019-01-08T09:14:50.995Z,5.73
2019-01-08T09:17:19.434Z,5.78
2019-01-08T09:19:47.852Z,5.85
2019-01-08T09:22:16.299Z,5.91
2019-01-08T09:24:44.716Z,5.95
2019-01-08T09:27:13.153Z,6.05
2019-01-08T09:29:41.570Z,6.07
2019-01-08T09:32:10.079Z,6.07
2019-01-08T09:34:38.504Z,6.07
2019-01-08T09:37:06.943Z,6.13
2019-01-08T09:39:35.355Z,6.13
2019-01-08T09:42:03.799Z,6.20
2019-01-08T09:44:32.208Z,6.20
2019-01-08T09:47:00.666Z,6.12
2019-01-08T09:49:29.079Z,6.07
2019-01-08T09:51:57.521Z,6.07
2019-01-08T09:54:25.936Z,6.05
2019-01-08T09:56:54.389Z,5.96
2019-01-08T09:59:22.794Z,5.96
2019-01-08T10:01:51.235Z,6.01
2019-01-08T10:04:19.652Z,6.08
2019-01-08T10:06:48.089Z,6.08
2019-01-08T10:09:16.510Z,6.12
2019-01-08T10:11:44.954Z,6.12
2019-01-08T10:14:13.366Z,6.14
2019-01-08T10:16:41.806Z,6.14
2019-01-08T10:19:10.222Z,6.01
2019-01-08T10:21:38.670Z,6.01
2019-01-08T10:24:07.084Z,5.88
2019-01-08T10:26:35.512Z,5.88
2019-01-08T10:29:03.956Z,5.95
2019-01-08T10:31:32.875Z,5.96
2019-01-08T10:34:01.400Z,6.00
2019-01-08T10:36:29.800Z,6.00
2019-01-08T10:38:58.240Z,5.95
2019-01-08T10:41:26.655Z,5.95
2019-01-08T10:43:55.088Z,5.96
2019-01-08T10:46:23.510Z,5.98
2019-01-08T10:48:51.956Z,5.92
2019-01-08T10:51:20.382Z,5.86
2019-01-08T10:53:48.828Z,5.86
2019-01-08T10:56:17.239Z,5.87
2019-01-08T10:58:45.735Z,5.83
2019-01-08T11:01:14.120Z,5.74
2019-01-08T11:03:42.558Z,5.67
2019-01-08T11:06:10.972Z,5.61
2019-01-08T11:08:39.418Z,5.59
2019-01-08T11:11:07.830Z,5.56
2019-01-08T11:13:36.266Z,5.50
2019-01-08T11:16:04.679Z,5.50
2019-01-08T11:18:33.190Z,5.54
2019-01-08T11:21:01.606Z,5.49
2019-01-08T11:23:30.115Z,5.49
2019-01-08T11:25:58.514Z,5.56
2019-01-08T11:28:26.966Z,5.59
2019-01-08T11:30:55.377Z,5.59
2019-01-08T11:33:23.812Z,5.61
2019-01-08T11:35:52.289Z,5.68
2019-01-08T11:38:20.729Z,5.68
2019-01-08T11:40:49.150Z,5.75
2019-01-08T11:43:17.593Z,5.87
2019-01-08T11:45:46.002Z,5.87
2019-01-08T11:48:14.442Z,5.94
2019-01-08T11:50:42.853Z,5.92
2019-01-08T11:53:11.292Z,5.92
2019-01-08T11:55:39.709Z,6.03
2019-01-08T11:58:08.128Z,6.02
2019-01-08T12:00:36.567Z,6.02
2019-01-08T12:03:04.978Z,5.99
2019-01-08T12:05:33.415Z,6.01
2019-01-08T12:08:01.833Z,6.06
2019-01-08T12:10:30.277Z,6.06
2019-01-08T12:12:58.692Z,6.12
2019-01-08T12:15:27.124Z,6.12
2019-01-08T12:17:55.543Z,6.08
2019-01-08T12:20:23.979Z,6.15
2019-01-08T12:22:52.398Z,6.15
2019-01-08T12:25:20.850Z,6.20
2019-01-08T12:27:49.261Z,6.25
2019-01-08T12:30:17.711Z,6.26
2019-01-08T12:32:46.127Z,6.26
2019-01-08T12:35:14.561Z,6.26
2019-01-08T12:37:42.967Z,6.27
2019-01-08T12:40:11.412Z,6.25
2019-01-08T12:42:39.840Z,6.33
2019-01-08T12:45:08.344Z,6.34
2019-01-08T12:47:36.765Z,6.37
2019-01-08T12:50:06.738Z,6.38
2019-01-08T12:52:35.148Z,6.38
2019-01-08T12:55:03.591Z,6.38
2019-01-08T12:57:32.004Z,6.38
2019-01-08T13:00:00.439Z,6.37
2019-01-08T13:02:28.856Z,6.35
2019-01-08T13:04:57.288Z,6.33
2019-01-08T13:07:25.696Z,6.26
2019-01-08T13:09:54.139Z,6.30
2019-01-08T13:12:22.558Z,6.33
2019-01-08T13:14:50.994Z,6.31
2019-01-08T13:17:19.407Z,6.31
2019-01-08T13:19:47.846Z,6.32
2019-01-08T13:22:16.261Z,6.30
2019-01-08T13:24:44.707Z,6.27
2019-01-08T13:27:13.119Z,6.27
2019-01-08T13:29:41.558Z,6.26
2019-01-08T13:32:09.980Z,6.26
2019-01-08T13:34:38.423Z,6.14
2019-01-08T13:37:07.350Z,6.19
2019-01-08T13:39:35.787Z,6.19
2019-01-08T13:42:04.273Z,6.18
2019-01-08T13:44:32.709Z,6.20
2019-01-08T13:47:01.137Z,6.19
2019-01-08T13:49:29.563Z,6.21
2019-01-08T13:51:57.977Z,6.16
2019-01-08T13:54:26.426Z,6.13
2019-01-08T13:56:54.836Z,6.13
2019-01-08T13:59:23.249Z,6.03
2019-01-08T14:01:51.690Z,6.07
2019-01-08T14:04:20.109Z,5.99
2019-01-08T14:06:48.545Z,5.99
2019-01-08T14:09:16.962Z,6.01
2019-01-08T14:11:46.264Z,6.00
2019-01-08T14:14:14.666Z,6.00
2019-01-08T14:16:43.110Z,5.95
2019-01-08T14:19:11.527Z,5.93
2019-01-08T14:21:39.962Z,5.93
2019-01-08T14:24:08.382Z,5.91
2019-01-08T14:26:36.825Z,5.91
2019-01-08T14:29:05.313Z,5.92
2019-01-08T14:31:33.743Z,5.84
2019-01-08T14:34:02.149Z,5.76
2019-01-08T14:36:31.932Z,5.76
2019-01-08T14:39:00.592Z,5.71
2019-01-08T14:41:29.028Z,5.59
2019-01-08T14:43:57.442Z,5.54
2019-01-08T14:46:25.887Z,5.47
2019-01-08T14:48:54.305Z,5.47
2019-01-08T14:51:22.750Z,5.41
2019-01-08T14:53:51.165Z,5.21
2019-01-08T14:56:19.603Z,5.05
2019-01-08T14:58:48.019Z,4.97
2019-01-08T15:01:16.465Z,4.97
2019-01-08T15:03:44.869Z,4.98
2019-01-08T15:06:13.313Z,4.82
2019-01-08T15:08:41.729Z,4.82
2019-01-08T15:11:10.159Z,4.58
2019-01-08T15:13:38.581Z,4.58
2019-01-08T15:16:07.023Z,4.23
2019-01-08T15:18:35.531Z,4.23
2019-01-08T15:21:03.985Z,4.15
2019-01-08T15:23:32.422Z,4.15
2019-01-08T15:26:00.853Z,4.06
2019-01-08T15:28:29.265Z,4.07
2019-01-08T15:30:57.736Z,4.12
2019-01-08T15:33:26.148Z,4.17
2019-01-08T15:35:54.555Z,4.22
2019-01-08T15:38:23.076Z,4.20
2019-01-08T15:40:51.556Z,4.25
2019-01-08T15:43:20.016Z,4.21
2019-01-08T15:45:48.437Z,4.28
2019-01-08T15:48:16.942Z,4.21
2019-01-08T15:50:45.375Z,4.18
2019-01-08T15:53:13.896Z,4.17
2019-01-08T15:55:42.306Z,4.23
2019-01-08T15:58:10.761Z,4.20
2019-01-08T16:00:39.167Z,4.24
2019-01-08T16:03:07.759Z,4.28
2019-01-08T16:05:36.200Z,4.28
2019-01-08T16:08:04.815Z,4.27
2019-01-08T16:10:33.205Z,4.23
2019-01-08T16:13:01.650Z,4.27
2019-01-08T16:15:30.067Z,4.21
2019-01-08T16:17:58.507Z,4.25
2019-01-08T16:20:26.919Z,4.30
2019-01-08T16:22:55.360Z,4.30
2019-01-08T16:25:23.820Z,4.35
2019-01-08T16:27:52.297Z,4.32
2019-01-08T16:30:20.713Z,4.32
2019-01-08T16:32:49.162Z,4.37
2019-01-08T16:35:17.578Z,4.34
2019-01-08T16:37:46.020Z,4.34
2019-01-08T16:40:14.804Z,4.38
2019-01-08T16:42:43.242Z,4.40
2019-01-08T16:45:11.736Z,4.41
2019-01-08T16:47:40.167Z,4.30
2019-01-08T16:50:08.651Z,4.34
2019-01-08T16:52:37.093Z,4.28
2019-01-08T16:55:06.043Z,4.22
2019-01-08T16:57:34.497Z,4.09
2019-01-08T17:00:03.381Z,3.77
2019-01-08T17:02:33.043Z,3.51
2019-01-08T17:05:01.520Z,3.24
2019-01-08T17:07:29.932Z,3.03
2019-01-08T17:09:58.375Z,2.97
2019-01-08T17:12:26.782Z,2.98
2019-01-08T17:14:55.220Z,2.96
2019-01-08T17:17:23.632Z,3.00
2019-01-08T17:19:52.071Z,3.07
2019-01-08T17:22:20.484Z,3.10
2019-01-08T17:24:48.936Z,2.99
2019-01-08T17:27:17.356Z,2.94
2019-01-08T17:29:45.795Z,2.95
2019-01-08T17:32:14.213Z,2.88
2019-01-08T17:34:42.648Z,2.89
2019-01-08T17:37:11.063Z,2.90
2019-01-08T17:39:39.510Z,2.89
2019-01-08T17:42:07.923Z,2.87
2019-01-08T17:44:36.460Z,2.84
2019-01-08T17:47:04.919Z,2.82
2019-01-08T17:49:33.359Z,2.87
2019-01-08T17:52:01.848Z,2.90
2019-01-08T17:54:30.304Z,2.97
2019-01-08T17:56:58.705Z,3.02
2019-01-08T17:59:27.145Z,3.04
2019-01-08T18:01:55.561Z,3.06
2019-01-08T18:04:23.996Z,3.13
2019-01-08T18:06:52.410Z,3.10
2019-01-08T18:09:20.855Z,3.16
2019-01-08T18:11:49.256Z,3.18
2019-01-08T18:14:17.693Z,3.18
2019-01-08T18:16:46.105Z,3.19
2019-01-08T18:19:14.569Z,3.21
2019-01-08T18:21:42.974Z,3.21
2019-01-08T18:24:11.427Z,3.25
2019-01-08T18:26:39.841Z,3.29
2019-01-08T18:29:08.270Z,3.26
2019-01-08T18:31:36.687Z,3.16
2019-01-08T18:34:05.167Z,3.10
2019-01-08T18:36:33.607Z,3.11
2019-01-08T18:39:02.024Z,3.08
2019-01-08T18:41:30.473Z,3.05
2019-01-08T18:43:58.885Z,3.02
2019-01-08T18:46:27.328Z,3.06
2019-01-08T18:48:55.739Z,3.05
2019-01-08T18:51:24.181Z,3.04
2019-01-08T18:53:52.591Z,3.01
2019-01-08T18:56:21.031Z,3.07
2019-01-08T18:58:49.517Z,3.05
2019-01-08T19:01:17.959Z,3.03
2019-01-08T19:03:46.373Z,3.01
2019-01-08T19:06:14.832Z,3.01
2019-01-08T19:09:21.277Z,2.98
2019-01-08T19:11:49.714Z,2.99
2019-01-08T19:14:19.467Z,2.93
2019-01-08T19:16:47.909Z,2.94
2019-01-08T19:19:16.326Z,2.94
2019-01-08T19:21:44.763Z,2.87
2019-01-08T19:24:13.177Z,2.90
2019-01-08T19:26:41.612Z,2.87
2019-01-08T19:29:10.099Z,2.93
2019-01-08T19:31:38.536Z,2.94
2019-01-08T19:34:09.466Z,2.93
2019-01-08T19:36:37.193Z,2.89
2019-01-08T19:39:07.137Z,2.86
2019-01-08T19:41:35.585Z,2.84
2019-01-08T19:44:04.097Z,2.78
2019-01-08T19:46:32.528Z,2.72
2019-01-08T19:49:00.937Z,2.69
2019-01-08T19:51:29.383Z,2.65
2019-01-08T19:53:57.862Z,2.67
2019-01-08T19:56:26.376Z,2.62
2019-01-08T19:58:54.787Z,2.59
2019-01-08T20:01:23.231Z,2.62
2019-01-08T20:03:51.712Z,2.57
2019-01-08T20:06:20.157Z,2.59
2019-01-08T20:08:49.008Z,2.61
2019-01-08T20:11:17.559Z,2.59
2019-01-08T20:13:46.039Z,2.53
2019-01-08T20:16:14.484Z,2.52
2019-01-08T20:18:45.220Z,2.49
2019-01-08T20:21:13.072Z,2.46
2019-01-08T20:23:41.553Z,2.41
2019-01-08T20:26:10.068Z,2.41
2019-01-08T20:28:38.471Z,2.37
2019-01-08T20:31:06.911Z,2.36
2019-01-08T20:33:35.317Z,2.34
2019-01-08T20:36:03.763Z,2.35
2019-01-08T20:38:32.174Z,2.32
2019-01-08T20:41:00.617Z,2.31
2019-01-08T20:43:29.121Z,2.32
2019-01-08T20:45:57.530Z,2.34
2019-01-08T20:48:25.965Z,2.33
2019-01-08T20:50:54.456Z,2.30
2019-01-08T20:53:22.909Z,2.28
2019-01-08T20:55:51.317Z,2.23
2019-01-08T20:58:36.036Z,2.13
2019-01-08T21:01:23.811Z,2.08
2019-01-08T21:03:54.870Z,2.02
2019-01-08T21:06:33.913Z,1.95
2019-01-08T21:09:24.584Z,1.97
2019-01-08T21:14:49.209Z,1.93
2019-01-08T21:17:30.554Z,1.90
2019-01-08T21:19:59.038Z,1.91
2019-01-08T21:22:27.510Z,1.90
2019-01-08T21:24:55.959Z,1.88
2019-01-08T21:27:24.414Z,1.84
2019-01-08T21:29:52.935Z,1.86
2019-01-08T21:32:21.490Z,1.84
2019-01-08T21:34:50.699Z,1.85
2019-01-08T21:37:19.153Z,1.87
2019-01-08T21:39:47.599Z,1.86
2019-01-08T21:42:16.160Z,1.85
2019-01-08T21:44:44.564Z,1.81
2019-01-08T21:47:25.446Z,1.74
2019-01-08T21:49:54.192Z,1.74
2019-01-08T21:52:22.727Z,1.77
2019-01-08T21:54:52.827Z,1.82
2019-01-08T21:57:22.239Z,1.78
2019-01-08T21:59:50.877Z,1.81
2019-01-08T22:02:20.178Z,1.81
2019-01-08T22:08:14.749Z,1.84
2019-01-08T22:10:43.171Z,1.95
2019-01-08T22:16:37.043Z,1.98
2019-01-08T22:19:16.235Z,2.02
2019-01-08T22:22:15.441Z,2.12
2019-01-08T22:24:50.225Z,2.14
2019-01-08T22:27:20.422Z,2.13
2019-01-08T22:29:48.880Z,2.16
2019-01-08T22:32:17.348Z,2.20
2019-01-08T22:35:02.402Z,2.24
2019-01-08T22:37:27.960Z,2.21
2019-01-08T22:39:56.987Z,2.18
2019-01-08T22:42:25.980Z,2.21
2019-01-08T22:44:57.562Z,2.14
2019-01-08T22:50:20.872Z,2.12
2019-01-08T22:52:49.925Z,2.14
2019-01-08T22:55:19.144Z,2.12
2019-01-08T22:57:56.359Z,2.14
2019-01-08T23:00:35.361Z,2.18
2019-01-08T23:03:05.425Z,2.15
2019-01-08T23:05:33.920Z,2.20
2019-01-08T23:08:02.441Z,2.20
2019-01-08T23:10:31.751Z,2.14
2019-01-08T23:13:00.640Z,2.13
2019-01-08T23:15:29.257Z,2.16
2019-01-08T23:17:57.754Z,2.18
2019-01-08T23:20:28.673Z,2.18
2019-01-08T23:22:57.119Z,2.21
2019-01-08T23:25:25.598Z,2.22
2019-01-08T23:27:54.184Z,2.14
2019-01-08T23:30:22.666Z,2.19
2019-01-08T23:32:51.199Z,2.14
2019-01-08T23:35:19.866Z,2.09
2019-01-08T23:37:48.421Z,2.07
2019-01-08T23:40:16.961Z,2.06
2019-01-08T23:42:45.467Z,1.98
2019-01-08T23:45:13.932Z,1.93
2019-01-08T23:47:42.441Z,1.88
2019-01-08T23:50:10.975Z,1.84
2019-01-08T23:53:05.900Z,1.81
2019-01-08T23:55:37.468Z,1.82
2019-01-08T23:58:09.109Z,1.84
